Pagrindinis puslapis
METAR-TAF:

METAR-TAF

Oro uostai :

Kišiniovas, Moldavija

platuma: 46-55-40N, ilguma: 028-55-51E, Aukštis: 122 m

Dabartinis oras

Ataskaita buvo paskelbta 34 minutes, ne 23:30 UTC
Vėjas 8 kt iš Šiaurės
Temperatūra 5°C
Drėgmė 33%
Slėgis 1033 hPa

METAR: LUKK 052330Z AUTO 01008KT //// R08/P2000N NCD 05/M10 Q1033 R08/CLRD// NOSIG

Laikas: 03:04 (00:04 UTC)

Prognozė

Ataskaita buvo paskelbta 44 minutes, ne 23:20 UTC
Prognozė galioja nuo 06 metu 00 UTC su 06 metu 24 UTC
Vėjas 8 kt iš Šiaurės/Šiaurės Rytų
Matomumas 10 km arba daugiau
nėra debesų žemiau 1500 m ir nėra kamuolinių lietaus debesų
Tapsmas
nuo 06 metu 05 UTC su 06 metu 07 UTC
Vėjas 8 kt iš Rytų
Tapsmas
nuo 06 metu 17 UTC su 06 metu 19 UTC
Vėjas 2 kt nuo kintamojo kryptimis

TAF: LUKK 052320Z 0600/0624 02008KT CAVOK BECMG 0605/0607 08008KT BECMG 0617/0619 VRB02KT

Orai ataskaitas ir orų prognozės (METAR, TAF).

turimą stotys yra geltonos ir raudonos taškus žemėlapyje.

Perkelti pele per norėdami pamatyti stoties vardą.

Tada spustelėkite, norėdami matyti oro stebėjimo ir prognozės.

Norėdami pakeisti žemėlapį: spustelėkite ant žalios mygtukų su juodo kryžiaus žemyn,; žalią mygtuką su brūkšneliu, jei norite nutolinti; arba žalių rodyklių gretimoms žemėlapius.


METAR-TAF: